createdAt,value
2023-03-21T00:01:19.979Z,8.27
2023-03-21T00:02:03.910Z,8.29
2023-03-21T00:04:04.845Z,8.33
2023-03-21T00:06:06.729Z,8.3
2023-03-21T00:08:07.993Z,8.35
2023-03-21T00:10:15.614Z,8.39
2023-03-21T00:12:10.991Z,8.35
2023-03-21T00:14:12.243Z,8.31
2023-03-21T00:16:14.066Z,8.3
2023-03-21T00:18:15.019Z,8.29
2023-03-21T00:20:16.755Z,8.29
2023-03-21T00:22:17.942Z,8.33
2023-03-21T00:24:19.641Z,8.36
2023-03-21T00:26:20.931Z,8.33
2023-03-21T00:28:22.076Z,8.35
2023-03-21T00:30:23.487Z,8.34
2023-03-21T00:32:24.447Z,8.35
2023-03-21T00:34:31.612Z,8.32
2023-03-21T00:36:26.457Z,8.31
2023-03-21T00:38:27.366Z,8.37
2023-03-21T00:40:33.018Z,8.35
2023-03-21T00:42:30.386Z,8.32
2023-03-21T00:44:31.596Z,8.32
2023-03-21T00:46:43.869Z,8.31
2023-03-21T00:48:33.939Z,8.24
2023-03-21T00:50:35.858Z,8.25
2023-03-21T00:52:40.760Z,8.19
2023-03-21T00:54:38.569Z,8.15
2023-03-21T00:56:40.232Z,8.07
2023-03-21T00:58:41.572Z,8.09
2023-03-21T01:00:43.248Z,8.16
2023-03-21T01:02:45.181Z,8.16
2023-03-21T01:04:45.788Z,8.19
2023-03-21T01:06:46.853Z,8.15
2023-03-21T01:08:52.505Z,8.09
2023-03-21T01:10:50.328Z,8.11
2023-03-21T01:12:51.728Z,8.03
2023-03-21T01:14:53.559Z,8
2023-03-21T01:16:54.597Z,7.97
2023-03-21T01:18:55.889Z,7.94
2023-03-21T01:20:57.605Z,7.9
2023-03-21T01:22:59.507Z,7.94
2023-03-21T01:25:12.324Z,7.93
2023-03-21T01:27:02.870Z,7.9
2023-03-21T01:29:04.249Z,7.94
2023-03-21T01:31:06.201Z,7.94
2023-03-21T01:33:07.558Z,7.9
2023-03-21T01:35:08.993Z,7.97
2023-03-21T01:37:10.742Z,7.9
2023-03-21T01:39:12.684Z,7.84
2023-03-21T01:43:15.687Z,7.75
2023-03-21T01:45:16.985Z,7.77
2023-03-21T01:47:18.372Z,7.94
2023-03-21T01:49:19.834Z,8.06
2023-03-21T01:51:21.336Z,8.15
2023-03-21T01:53:22.729Z,8.17
2023-03-21T01:55:23.789Z,8.13
2023-03-21T01:57:27.778Z,8.09
2023-03-21T01:59:27.345Z,8.08
2023-03-21T02:01:28.737Z,8.07
2023-03-21T02:03:38.678Z,8.12
2023-03-21T02:05:31.317Z,8.17
2023-03-21T02:07:32.302Z,8.15
2023-03-21T02:09:33.266Z,8.12
2023-03-21T02:11:34.327Z,8.19
2023-03-21T02:13:35.527Z,8.11
2023-03-21T02:15:37.426Z,8.06
2023-03-21T02:17:38.271Z,8.16
2023-03-21T02:19:47.720Z,8.15
2023-03-21T02:21:41.015Z,8.07
2023-03-21T02:23:42.374Z,7.98
2023-03-21T02:25:43.561Z,8.02
2023-03-21T02:27:44.519Z,7.99
2023-03-21T02:29:45.579Z,7.92
2023-03-21T02:31:47.257Z,7.96
2023-03-21T02:33:48.391Z,7.91
2023-03-21T02:35:53.624Z,7.89
2023-03-21T02:38:00.741Z,7.84
2023-03-21T02:39:53.276Z,7.83
2023-03-21T02:41:55.218Z,7.79
2023-03-21T02:43:57.097Z,7.75
2023-03-21T02:45:58.598Z,7.73
2023-03-21T02:47:59.644Z,7.68
2023-03-21T02:50:01.127Z,7.67
2023-03-21T02:52:12.129Z,7.76
2023-03-21T02:54:26.319Z,7.79
2023-03-21T02:56:05.182Z,7.78
2023-03-21T02:58:12.672Z,7.79
2023-03-21T03:00:16.033Z,7.85
2023-03-21T03:02:09.346Z,7.97
2023-03-21T03:04:10.656Z,8.03
2023-03-21T03:06:12.111Z,7.92
2023-03-21T03:08:14.213Z,7.89
2023-03-21T03:10:24.125Z,7.81
2023-03-21T03:12:16.345Z,7.8
2023-03-21T03:14:32.447Z,7.86
2023-03-21T03:16:18.950Z,8.03
2023-03-21T03:18:20.619Z,8.02
2023-03-21T03:20:21.637Z,7.94
2023-03-21T03:22:22.738Z,7.97
2023-03-21T03:24:24.577Z,7.85
2023-03-21T03:26:26.380Z,7.83
2023-03-21T03:28:27.716Z,7.79
2023-03-21T03:30:35.510Z,7.76
2023-03-21T03:32:30.461Z,7.79
2023-03-21T03:34:31.961Z,7.79
2023-03-21T03:36:33.807Z,7.78
2023-03-21T03:38:35.037Z,7.73
2023-03-21T03:40:37.219Z,7.65
2023-03-21T03:42:37.712Z,7.59
2023-03-21T03:44:39.642Z,7.54
2023-03-21T03:46:41.578Z,7.44
2023-03-21T03:48:43.429Z,7.37
2023-03-21T03:50:44.450Z,7.33
2023-03-21T03:52:55.511Z,7.32
2023-03-21T03:54:47.710Z,7.25
2023-03-21T03:56:48.972Z,7.16
2023-03-21T03:58:49.961Z,7.07
2023-03-21T04:00:50.929Z,7.02
2023-03-21T04:02:52.508Z,6.89
2023-03-21T04:06:57.559Z,6.89
2023-03-21T04:08:57.060Z,6.92
2023-03-21T04:10:58.802Z,6.93
2023-03-21T04:13:00.206Z,6.83
2023-03-21T04:15:09.707Z,6.8
2023-03-21T04:17:03.415Z,6.73
2023-03-21T04:19:04.441Z,6.54
2023-03-21T04:21:05.706Z,6.39
2023-03-21T04:23:07.655Z,6.32
2023-03-21T04:25:09.373Z,6.26
2023-03-21T04:27:10.531Z,6.23
2023-03-21T04:29:11.747Z,6.15
2023-03-21T04:31:24.334Z,6.11
2023-03-21T04:33:14.956Z,6.04
2023-03-21T04:35:16.442Z,5.92
2023-03-21T04:37:17.897Z,5.84
2023-03-21T04:39:19.508Z,5.72
2023-03-21T04:41:20.524Z,5.7
2023-03-21T04:43:21.738Z,5.62
2023-03-21T04:45:23.280Z,5.56
2023-03-21T04:47:24.275Z,5.47
2023-03-21T04:49:26.173Z,5.42
2023-03-21T04:51:28.067Z,5.42
2023-03-21T04:53:29.116Z,5.46
2023-03-21T04:55:30.572Z,5.38
2023-03-21T04:57:31.844Z,5.46
2023-03-21T04:59:33.552Z,5.37
2023-03-21T05:01:34.695Z,5.24
2023-03-21T05:03:36.104Z,5.18
2023-03-21T05:05:45.768Z,5.11
2023-03-21T05:07:38.942Z,5.2
2023-03-21T05:09:40.838Z,5.49
2023-03-21T05:11:42.710Z,5.62
2023-03-21T05:13:44.286Z,5.62
2023-03-21T05:15:46.080Z,5.56
2023-03-21T05:17:47.808Z,5.47
2023-03-21T05:19:49.169Z,5.37
2023-03-21T05:21:51.056Z,5.21
2023-03-21T05:23:52.133Z,5.1
2023-03-21T05:25:53.093Z,5.02
2023-03-21T05:27:54.777Z,5.1
2023-03-21T05:29:56.320Z,5.15
2023-03-21T05:31:58.308Z,5.15
2023-03-21T05:33:59.676Z,5.29
2023-03-21T05:36:00.949Z,5.23
2023-03-21T05:38:02.821Z,5.17
2023-03-21T05:40:04.462Z,5.1
2023-03-21T05:42:06.192Z,5.01
2023-03-21T05:44:07.234Z,4.97
2023-03-21T05:46:08.361Z,5.05
2023-03-21T05:48:09.819Z,5.14
2023-03-21T05:50:10.779Z,5.16
2023-03-21T05:52:12.234Z,5.11
2023-03-21T05:54:13.408Z,4.99
2023-03-21T05:56:14.806Z,4.8
2023-03-21T05:58:16.282Z,4.7
2023-03-21T06:00:17.324Z,4.71
2023-03-21T06:02:19.180Z,4.77
2023-03-21T06:04:28.451Z,4.74
2023-03-21T06:06:21.543Z,4.66
2023-03-21T06:08:23.039Z,4.7
2023-03-21T06:10:24.344Z,4.76
2023-03-21T06:12:26.002Z,4.79
2023-03-21T06:14:27.930Z,4.81
2023-03-21T06:16:29.515Z,4.82
2023-03-21T06:18:31.171Z,4.87
2023-03-21T06:20:32.358Z,4.92
2023-03-21T06:22:33.810Z,5.03
2023-03-21T06:24:35.491Z,5.18
2023-03-21T06:26:36.906Z,5.45
2023-03-21T06:28:38.272Z,5.67
2023-03-21T06:30:39.355Z,5.76
2023-03-21T06:32:40.774Z,5.73
2023-03-21T06:34:42.385Z,5.65
2023-03-21T06:36:43.548Z,5.73
2023-03-21T06:38:45.496Z,5.95
2023-03-21T06:40:47.210Z,6.32
2023-03-21T06:42:48.486Z,7.2
2023-03-21T06:44:50.155Z,8.7
2023-03-21T06:46:51.533Z,8.44
2023-03-21T06:47:35.337Z,8.57
2023-03-21T06:49:36.593Z,8.36
2023-03-21T06:51:37.988Z,8.05
2023-03-21T06:53:39.662Z,7.7
2023-03-21T06:55:41.064Z,8.04
2023-03-21T06:57:42.661Z,8.06
2023-03-21T06:59:43.572Z,8.45
2023-03-21T07:01:45.308Z,8.51
2023-03-21T07:03:46.991Z,9.36
2023-03-21T07:07:49.621Z,10.18
2023-03-21T07:09:51.181Z,10.37
2023-03-21T07:11:52.899Z,10.87
2023-03-21T07:13:54.727Z,10.82
2023-03-21T07:15:56.188Z,11.01
2023-03-21T07:17:57.654Z,10.79
2023-03-21T07:19:58.643Z,11.1
2023-03-21T07:21:59.740Z,11.53
2023-03-21T07:24:00.964Z,11.63
2023-03-21T07:26:02.142Z,11.98
2023-03-21T07:28:02.969Z,12.08
2023-03-21T07:30:04.465Z,11.35
2023-03-21T07:32:06.209Z,11.51
2023-03-21T07:34:07.795Z,11.99
2023-03-21T07:36:08.981Z,12.39
2023-03-21T07:38:10.567Z,13.05
2023-03-21T07:40:12.256Z,12.75
2023-03-21T07:42:13.576Z,13.06
2023-03-21T07:44:15.182Z,13.11
2023-03-21T07:46:16.867Z,12.77
2023-03-21T07:48:18.313Z,12.53
2023-03-21T07:50:19.087Z,12.34
2023-03-21T07:52:20.243Z,12.3
2023-03-21T07:54:21.088Z,12.37
2023-03-21T07:56:22.111Z,12.21
2023-03-21T07:58:23.271Z,12.25
2023-03-21T08:00:24.607Z,12.3
2023-03-21T08:02:25.528Z,12.36
2023-03-21T08:04:26.957Z,12.5
2023-03-21T08:06:27.870Z,12.85
2023-03-21T08:08:29.148Z,12.44
2023-03-21T08:10:30.306Z,12.83
2023-03-21T08:12:31.753Z,12.8
2023-03-21T08:14:33.166Z,12.95
2023-03-21T08:16:34.920Z,12.69
2023-03-21T08:18:36.205Z,12.08
2023-03-21T08:20:37.489Z,12.05
2023-03-21T08:22:38.750Z,11.84
2023-03-21T08:24:39.755Z,12
2023-03-21T08:26:41.184Z,11.47
2023-03-21T08:28:42.930Z,11.77
2023-03-21T08:30:44.443Z,12.12
2023-03-21T08:32:46.105Z,12.44
2023-03-21T08:34:47.157Z,12.9
2023-03-21T08:36:48.815Z,12.39
2023-03-21T08:38:49.665Z,12.46
2023-03-21T08:40:50.542Z,13.05
2023-03-21T08:42:51.397Z,12.53
2023-03-21T08:44:52.376Z,12.12
2023-03-21T08:48:54.849Z,12.56
2023-03-21T08:50:56.043Z,12.72
2023-03-21T08:52:57.849Z,12.98
2023-03-21T08:54:59.320Z,12.48
2023-03-21T08:57:00.978Z,12.56
2023-03-21T08:59:02.641Z,12.76
2023-03-21T09:01:03.865Z,13.27
2023-03-21T09:03:06.135Z,13.78
2023-03-21T09:05:07.652Z,13.09
2023-03-21T09:07:08.778Z,13.05
2023-03-21T09:09:09.820Z,13.36
2023-03-21T09:11:11.318Z,13.18
2023-03-21T09:13:12.848Z,13.85
2023-03-21T09:15:13.748Z,13.78
2023-03-21T09:17:14.880Z,13.5
2023-03-21T09:19:16.556Z,13.73
2023-03-21T09:21:17.949Z,13.98
2023-03-21T09:23:18.862Z,13.5
2023-03-21T09:25:19.789Z,13.47
2023-03-21T09:27:21.063Z,14.23
2023-03-21T09:29:22.167Z,13.71
2023-03-21T09:31:23.343Z,14.47
2023-03-21T09:33:24.573Z,14.83
2023-03-21T09:35:26.106Z,14.09
2023-03-21T09:37:27.249Z,13.56
2023-03-21T09:39:28.233Z,14.24
2023-03-21T09:41:29.934Z,14.51
2023-03-21T09:43:30.840Z,14.5
2023-03-21T09:45:32.590Z,14.23
2023-03-21T09:47:35.197Z,14.38
2023-03-21T09:49:36.515Z,14.67
2023-03-21T09:51:37.447Z,14.58
2023-03-21T09:53:38.722Z,15.07
2023-03-21T09:55:40.627Z,14.97
2023-03-21T09:57:41.870Z,15.14
2023-03-21T09:59:43.199Z,14.75
2023-03-21T10:01:44.021Z,15.06
2023-03-21T10:03:45.127Z,14.62
2023-03-21T10:05:46.419Z,14.29
2023-03-21T10:07:47.757Z,14.57
2023-03-21T10:09:49.165Z,14.15
2023-03-21T10:11:50.026Z,14.83
2023-03-21T10:13:51.388Z,14.2
2023-03-21T10:15:53.176Z,14.38
2023-03-21T10:17:54.897Z,14.33
2023-03-21T10:19:56.612Z,14.57
2023-03-21T10:22:01.991Z,14.12
2023-03-21T10:23:59.109Z,14.78
2023-03-21T10:26:00.366Z,15.29
2023-03-21T10:28:02.079Z,15.44
2023-03-21T10:30:03.094Z,15.4
2023-03-21T10:32:04.426Z,15.36
2023-03-21T10:34:05.231Z,15.26
2023-03-21T10:36:06.624Z,15.18
2023-03-21T10:38:07.451Z,15.28
2023-03-21T10:40:08.398Z,15.29
2023-03-21T10:42:10.034Z,15.46
2023-03-21T10:44:10.906Z,15.51
2023-03-21T10:46:12.633Z,15.51
2023-03-21T10:48:13.887Z,15.2
2023-03-21T10:50:14.735Z,15.02
2023-03-21T10:52:15.863Z,14.93
2023-03-21T10:54:17.248Z,15.1
2023-03-21T10:56:18.981Z,14.81
2023-03-21T10:58:20.720Z,14.88
2023-03-21T11:00:22.007Z,15.56
2023-03-21T11:02:22.927Z,15.01
2023-03-21T11:04:24.680Z,15.47
2023-03-21T11:06:26.183Z,15.38
2023-03-21T11:08:27.514Z,15.25
2023-03-21T11:12:29.987Z,15.27
2023-03-21T11:14:30.953Z,15.6
2023-03-21T11:16:32.191Z,15.58
2023-03-21T11:18:33.141Z,15.46
2023-03-21T11:20:42.922Z,15.69
2023-03-21T11:22:36.402Z,15.81
2023-03-21T11:24:38.150Z,15.77
2023-03-21T11:26:39.178Z,16.02
2023-03-21T11:28:40.592Z,15.85
2023-03-21T11:30:41.882Z,16.06
2023-03-21T11:32:43.689Z,15.6
2023-03-21T11:34:44.855Z,15.62
2023-03-21T11:36:45.667Z,15.73
2023-03-21T11:38:46.963Z,15.46
2023-03-21T11:40:48.157Z,15.76
2023-03-21T11:44:51.690Z,16.21
2023-03-21T11:46:53.950Z,16.24
2023-03-21T11:48:53.989Z,16.08
2023-03-21T11:50:55.375Z,15.75
2023-03-21T11:52:56.979Z,15.63
2023-03-21T11:54:58.681Z,15.76
2023-03-21T11:57:00.022Z,15.34
2023-03-21T11:59:02.677Z,15.22
2023-03-21T12:01:04.291Z,15.37
2023-03-21T12:03:06.599Z,15.54
2023-03-21T12:05:08.360Z,15.5
2023-03-21T12:07:10.025Z,15.81
2023-03-21T12:09:11.579Z,15.53
2023-03-21T12:11:13.089Z,15.21
2023-03-21T12:13:13.960Z,14.98
2023-03-21T12:15:15.957Z,15.07
2023-03-21T12:17:17.485Z,15.35
2023-03-21T12:19:18.926Z,15.22
2023-03-21T12:21:20.503Z,15.11
2023-03-21T12:23:22.190Z,15.1
2023-03-21T12:27:24.605Z,15.07
2023-03-21T12:29:25.696Z,14.98
2023-03-21T12:31:26.877Z,14.83
2023-03-21T12:33:27.821Z,15.13
2023-03-21T12:35:29.379Z,14.81
2023-03-21T12:37:30.737Z,14.79
2023-03-21T12:39:32.277Z,14.91
2023-03-21T12:41:33.987Z,14.71
2023-03-21T12:43:35.750Z,14.88
2023-03-21T12:45:46.416Z,15.06
2023-03-21T12:47:38.767Z,14.95
2023-03-21T12:49:40.438Z,14.81
2023-03-21T12:51:41.626Z,14.91
2023-03-21T12:53:42.543Z,15.31
2023-03-21T12:55:44.314Z,15.32
2023-03-21T12:57:54.801Z,15.01
2023-03-21T12:59:48.005Z,14.91
2023-03-21T13:01:49.127Z,14.81
2023-03-21T13:03:50.368Z,14.74
2023-03-21T13:05:52.062Z,15.04
2023-03-21T13:07:53.073Z,15.07
2023-03-21T13:09:54.837Z,15.12
2023-03-21T13:11:56.587Z,14.94
2023-03-21T13:13:57.426Z,14.99
2023-03-21T13:15:59.150Z,15.04
2023-03-21T13:18:00.294Z,15.29
2023-03-21T13:20:01.922Z,15.01
2023-03-21T13:22:04.073Z,14.83
2023-03-21T13:24:05.797Z,14.81
2023-03-21T13:26:06.849Z,14.68
2023-03-21T13:28:08.052Z,14.79
2023-03-21T13:30:09.145Z,14.71
2023-03-21T13:32:10.776Z,14.64
2023-03-21T13:34:56.396Z,14.67
2023-03-21T13:36:57.149Z,14.42
2023-03-21T13:38:59.601Z,14.55
2023-03-21T13:41:00.194Z,14.79
2023-03-21T13:43:01.157Z,14.74
2023-03-21T13:45:02.703Z,14.46
2023-03-21T13:47:03.973Z,14.65
2023-03-21T13:49:05.537Z,14.6
2023-03-21T13:51:07.323Z,14.55
2023-03-21T13:53:09.244Z,14.62
2023-03-21T13:55:10.807Z,14.43
2023-03-21T13:57:12.552Z,14.32
2023-03-21T13:59:13.616Z,14.48
2023-03-21T14:01:14.808Z,14.41
2023-03-21T14:03:16.488Z,14.42
2023-03-21T14:05:17.522Z,14.33
2023-03-21T14:07:19.020Z,14.32
2023-03-21T14:09:21.137Z,14.29
2023-03-21T14:11:22.093Z,14.28
2023-03-21T14:13:23.330Z,14.31
2023-03-21T14:15:24.541Z,14.15
2023-03-21T14:17:26.039Z,14.23
2023-03-21T14:19:27.570Z,14.43
2023-03-21T14:21:28.990Z,14.31
2023-03-21T14:23:30.642Z,14.26
2023-03-21T14:25:37.113Z,14.1
2023-03-21T14:27:32.936Z,14.12
2023-03-21T14:29:34.216Z,14.13
2023-03-21T14:31:35.789Z,14.08
2023-03-21T14:33:37.474Z,14.17
2023-03-21T14:35:39.088Z,14.1
2023-03-21T14:37:39.687Z,14.04
2023-03-21T14:39:40.753Z,14.04
2023-03-21T14:41:41.683Z,13.91
2023-03-21T14:45:44.227Z,13.76
2023-03-21T14:47:45.784Z,13.7
2023-03-21T14:49:47.483Z,13.55
2023-03-21T14:51:48.477Z,13.62
2023-03-21T14:53:50.056Z,13.55
2023-03-21T14:55:51.765Z,13.56
2023-03-21T14:57:52.902Z,13.43
2023-03-21T14:59:54.541Z,13.52
2023-03-21T15:01:56.547Z,13.38
2023-03-21T15:03:59.290Z,13.35
2023-03-21T15:05:58.704Z,13.31
2023-03-21T15:07:59.976Z,13.29
2023-03-21T15:10:01.246Z,13.27
2023-03-21T15:12:02.388Z,13.18
2023-03-21T15:14:04.206Z,13.13
2023-03-21T15:16:05.504Z,13.13
2023-03-21T15:18:06.549Z,13.09
2023-03-21T15:20:08.369Z,13.08
2023-03-21T15:22:09.788Z,13.09
2023-03-21T15:24:11.053Z,13.13
2023-03-21T15:26:12.488Z,13.08
2023-03-21T15:28:13.654Z,13.06
2023-03-21T15:30:14.770Z,13.08
2023-03-21T15:32:15.847Z,13.06
2023-03-21T15:34:17.171Z,13.03
2023-03-21T15:36:18.991Z,13.07
2023-03-21T15:38:20.570Z,13.02
2023-03-21T15:40:21.581Z,13.03
2023-03-21T15:42:23.127Z,13.06
2023-03-21T15:44:24.112Z,13.06
2023-03-21T15:46:25.256Z,13.03
2023-03-21T15:48:26.743Z,13.03
2023-03-21T15:50:28.108Z,13.05
2023-03-21T15:52:29.589Z,13.03
2023-03-21T15:54:31.321Z,13.06
2023-03-21T15:56:41.304Z,13.11
2023-03-21T15:58:33.863Z,13.04
2023-03-21T16:00:35.407Z,13.05
2023-03-21T16:02:36.613Z,13.05
2023-03-21T16:04:38.007Z,13.03
2023-03-21T16:06:39.335Z,13.03
2023-03-21T16:08:41.130Z,13
2023-03-21T16:10:42.769Z,12.92
2023-03-21T16:12:44.186Z,12.95
2023-03-21T16:14:46.038Z,12.9
2023-03-21T16:16:47.440Z,12.9
2023-03-21T16:18:49.062Z,12.9
2023-03-21T16:20:50.680Z,12.89
2023-03-21T16:22:52.543Z,12.85
2023-03-21T16:24:53.738Z,12.83
2023-03-21T16:26:55.140Z,12.84
2023-03-21T16:28:56.448Z,12.82
2023-03-21T16:30:57.501Z,12.81
2023-03-21T16:32:59.262Z,12.81
2023-03-21T16:35:00.334Z,12.79
2023-03-21T16:37:01.383Z,12.79
2023-03-21T16:39:02.764Z,12.78
2023-03-21T16:41:03.976Z,12.78
2023-03-21T16:43:05.229Z,12.72
2023-03-21T16:45:06.333Z,12.66
2023-03-21T16:47:07.266Z,12.68
2023-03-21T16:49:09.076Z,12.59
2023-03-21T16:51:10.285Z,12.6
2023-03-21T16:53:11.863Z,12.52
2023-03-21T16:55:13.273Z,12.51
2023-03-21T16:57:14.838Z,12.31
2023-03-21T16:59:16.249Z,12.19
2023-03-21T17:01:18.031Z,12.03
2023-03-21T17:03:19.094Z,12.07
2023-03-21T17:05:20.758Z,12.09
2023-03-21T17:09:23.008Z,11.98
2023-03-21T17:11:24.003Z,12.03
2023-03-21T17:13:25.874Z,12
2023-03-21T17:15:27.115Z,11.93
2023-03-21T17:17:28.208Z,11.99
2023-03-21T17:19:30.259Z,11.9
2023-03-21T17:21:31.162Z,11.91
2023-03-21T17:23:32.304Z,11.87
2023-03-21T17:25:33.849Z,11.82
2023-03-21T17:27:35.088Z,11.8
2023-03-21T17:29:36.632Z,11.78
2023-03-21T17:31:38.075Z,11.71
2023-03-21T17:33:39.921Z,11.65
2023-03-21T17:35:41.108Z,11.56
2023-03-21T17:37:42.567Z,11.53
2023-03-21T17:39:44.068Z,11.52
2023-03-21T17:41:45.319Z,11.49
2023-03-21T17:43:47.094Z,11.38
2023-03-21T17:45:48.208Z,11.34
2023-03-21T17:47:49.926Z,11.32
2023-03-21T17:49:51.463Z,11.3
2023-03-21T17:51:52.673Z,11.27
2023-03-21T17:53:54.551Z,11.27
2023-03-21T17:55:55.702Z,11.22
2023-03-21T17:57:57.285Z,11.22
2023-03-21T17:59:58.540Z,11.01
2023-03-21T18:02:00.392Z,10.98
2023-03-21T18:04:01.648Z,10.77
2023-03-21T18:06:02.942Z,10.65
2023-03-21T18:08:12.489Z,10.71
2023-03-21T18:10:06.194Z,10.7
2023-03-21T18:12:07.124Z,10.63
2023-03-21T18:14:16.114Z,10.78
2023-03-21T18:16:09.974Z,10.81
2023-03-21T18:18:11.124Z,10.77
2023-03-21T18:20:12.938Z,10.8
2023-03-21T18:22:14.704Z,10.77
2023-03-21T18:24:16.692Z,10.75
2023-03-21T18:26:17.787Z,10.65
2023-03-21T18:28:21.188Z,10.59
2023-03-21T18:30:37.630Z,10.52
2023-03-21T18:32:22.317Z,10.46
2023-03-21T18:34:24.253Z,10.26
2023-03-21T18:36:27.781Z,10.22
2023-03-21T18:38:26.266Z,10.23
2023-03-21T18:40:28.124Z,10.25
2023-03-21T18:42:30.841Z,10.33
2023-03-21T18:44:31.153Z,10.33
2023-03-21T18:46:32.366Z,10.47
2023-03-21T18:48:34.277Z,10.58
2023-03-21T18:50:34.942Z,10.72
2023-03-21T18:52:36.694Z,10.85
2023-03-21T18:54:38.374Z,10.94
2023-03-21T18:57:27.643Z,10.85
2023-03-21T18:58:40.688Z,10.79
2023-03-21T19:00:42.732Z,10.47
2023-03-21T19:02:46.208Z,10.41
2023-03-21T19:04:45.581Z,10.49
2023-03-21T19:06:47.007Z,10.57
2023-03-21T19:08:48.407Z,10.7
2023-03-21T19:10:49.911Z,10.79
2023-03-21T19:12:51.514Z,10.86
2023-03-21T19:14:52.987Z,10.71
2023-03-21T19:17:56.386Z,10.59
2023-03-21T19:18:57.160Z,10.51
2023-03-21T19:20:57.100Z,10.41
2023-03-21T19:23:10.102Z,10.36
2023-03-21T19:25:00.323Z,10.26
2023-03-21T19:27:01.806Z,10.16
2023-03-21T19:29:03.335Z,10.21
2023-03-21T19:31:04.907Z,10.14
2023-03-21T19:33:06.170Z,9.91
2023-03-21T19:35:07.660Z,9.87
2023-03-21T19:37:09.494Z,9.78
2023-03-21T19:39:10.481Z,9.85
2023-03-21T19:41:11.674Z,9.96
2023-03-21T19:43:31.526Z,10.02
2023-03-21T19:45:14.979Z,9.99
2023-03-21T19:47:17.447Z,10.04
2023-03-21T19:49:17.899Z,10.04
2023-03-21T19:51:28.010Z,10.28
2023-03-21T19:53:20.647Z,10.25
2023-03-21T19:55:22.412Z,9.94
2023-03-21T19:57:24.912Z,9.92
2023-03-21T19:59:25.460Z,9.9
2023-03-21T20:01:27.436Z,9.96
2023-03-21T20:03:28.965Z,9.99
2023-03-21T20:05:29.931Z,9.89
2023-03-21T20:07:31.574Z,9.79
2023-03-21T20:09:52.441Z,9.51
2023-03-21T20:11:34.494Z,9.31
2023-03-21T20:15:45.805Z,9.2
2023-03-21T20:17:39.416Z,9.2
2023-03-21T20:20:24.547Z,9.22
2023-03-21T20:22:43.631Z,9.29
2023-03-21T20:24:27.208Z,9.25
2023-03-21T20:26:28.496Z,9.38
2023-03-21T20:28:30.250Z,9.4
2023-03-21T20:30:31.891Z,9.35
2023-03-21T20:32:33.579Z,9.22
2023-03-21T20:34:35.548Z,9.12
2023-03-21T20:36:40.338Z,9.09
2023-03-21T20:38:38.480Z,9.05
2023-03-21T20:40:40.692Z,9.02
2023-03-21T20:42:42.812Z,9.15
2023-03-21T20:44:59.146Z,9.15
2023-03-21T20:46:44.736Z,9.15
2023-03-21T20:48:46.357Z,9.14
2023-03-21T20:50:48.163Z,9.12
2023-03-21T20:53:04.736Z,9.1
2023-03-21T20:54:50.709Z,9.14
2023-03-21T20:56:52.193Z,9.15
2023-03-21T20:59:04.752Z,9.13
2023-03-21T21:00:55.186Z,9.06
2023-03-21T21:02:57.071Z,8.92
2023-03-21T21:05:23.974Z,8.93
2023-03-21T21:07:00.401Z,8.91
2023-03-21T21:09:01.389Z,8.9
2023-03-21T21:11:50.096Z,8.99
2023-03-21T21:13:03.345Z,9.02
2023-03-21T21:15:05.802Z,8.9
2023-03-21T21:17:23.104Z,8.95
2023-03-21T21:19:08.455Z,9.03
2023-03-21T21:21:10.295Z,9.11
2023-03-21T21:23:13.489Z,9.13
2023-03-21T21:25:12.468Z,9.08
2023-03-21T21:27:14.328Z,8.9
2023-03-21T21:29:16.123Z,8.78
2023-03-21T21:31:26.729Z,8.8
2023-03-21T21:33:18.987Z,8.51
2023-03-21T21:35:20.720Z,8.39
2023-03-21T21:37:22.492Z,8.32
2023-03-21T21:39:23.952Z,8.29
2023-03-21T21:41:25.488Z,8.31
2023-03-21T21:43:27.482Z,8.25
2023-03-21T21:45:28.994Z,8.08
2023-03-21T21:47:30.080Z,8
2023-03-21T21:49:31.319Z,7.92
2023-03-21T21:51:33.202Z,7.9
2023-03-21T21:53:35.116Z,7.87
2023-03-21T21:55:36.422Z,7.78
2023-03-21T21:57:37.521Z,7.58
2023-03-21T21:59:38.639Z,7.55
2023-03-21T22:01:40.111Z,7.58
2023-03-21T22:03:41.653Z,7.39
2023-03-21T22:05:42.939Z,7.35
2023-03-21T22:07:44.087Z,7.53
2023-03-21T22:09:45.243Z,7.63
2023-03-21T22:11:47.036Z,7.73
2023-03-21T22:13:48.132Z,7.8
2023-03-21T22:15:49.436Z,7.86
2023-03-21T22:17:51.050Z,7.77
2023-03-21T22:20:04.608Z,7.68
2023-03-21T22:21:54.304Z,7.53
2023-03-21T22:23:55.919Z,7.4
2023-03-21T22:25:57.107Z,7.23
2023-03-21T22:27:58.203Z,7.16
2023-03-21T22:29:59.959Z,7.4
2023-03-21T22:32:01.257Z,7.49
2023-03-21T22:34:02.502Z,7.47
2023-03-21T22:36:03.733Z,7.39
2023-03-21T22:38:05.446Z,7.3
2023-03-21T22:40:06.817Z,7.19
2023-03-21T22:42:08.480Z,7.17
2023-03-21T22:44:09.984Z,7.23
2023-03-21T22:46:11.786Z,7.31
2023-03-21T22:48:13.192Z,7.5
2023-03-21T22:50:14.725Z,7.49
2023-03-21T22:52:16.469Z,7.43
2023-03-21T22:54:18.274Z,7.46
2023-03-21T22:56:20.175Z,7.39
2023-03-21T22:58:21.858Z,7.27
2023-03-21T23:00:23.667Z,7.17
2023-03-21T23:02:24.667Z,7.05
2023-03-21T23:04:25.665Z,7.11
2023-03-21T23:06:26.655Z,7.18
2023-03-21T23:08:27.825Z,7.29
2023-03-21T23:10:29.640Z,7.17
2023-03-21T23:12:30.603Z,7.06
2023-03-21T23:16:33.243Z,6.83
2023-03-21T23:18:34.643Z,6.82
2023-03-21T23:20:36.193Z,6.78
2023-03-21T23:22:37.810Z,6.83
2023-03-21T23:24:38.854Z,6.82
2023-03-21T23:26:39.868Z,6.76
2023-03-21T23:28:41.013Z,6.68
2023-03-21T23:30:42.175Z,6.7
2023-03-21T23:32:43.141Z,6.57
2023-03-21T23:34:44.829Z,6.54
2023-03-21T23:36:46.165Z,6.63
2023-03-21T23:38:47.935Z,6.83
2023-03-21T23:40:49.195Z,6.84
2023-03-21T23:42:50.740Z,6.83
2023-03-21T23:44:52.311Z,6.81
2023-03-21T23:46:53.804Z,6.79
2023-03-21T23:48:54.729Z,6.71
2023-03-21T23:50:55.973Z,6.63
2023-03-21T23:52:57.282Z,6.54
2023-03-21T23:54:58.616Z,6.45
2023-03-21T23:57:00.191Z,6.36
2023-03-21T23:59:01.769Z,6.4
